Time;durP1;ratioP1;P1;durP2;ratioP2;P2;SDS_P1;SDS_P2;PMS_P1;PMS_P2;Temp;Humidity;BMP_temperature;BMP_pressure;BME280_temperature;BME280_humidity;BME280_pressure;Samples;Min_cycle;Max_cycle;Signal;HPM_P1;HPM_P2
2023/08/11 00:00:08;0.00;0.00;0.62;0.00;0.00;0.62;2.27;1.73;;;28.90;26.90;;;;;;2264029;61;20376;-59
2023/08/11 00:02:56;0.00;0.00;0.62;0.00;0.00;0.62;3.10;1.57;;;28.80;26.90;;;;;;2263843;61;20411;-56
2023/08/11 00:05:43;0.00;0.00;0.62;0.00;0.00;0.62;3.10;2.03;;;28.90;27.40;;;;;;2264334;61;20395;-60
2023/08/11 00:08:27;0.00;0.00;0.62;0.00;0.00;0.62;2.90;2.10;;;28.90;26.90;;;;;;2264057;61;20360;-60
2023/08/11 00:11:12;0.00;0.00;0.62;0.00;0.00;0.62;3.10;1.70;;;28.80;26.90;;;;;;2263689;61;20415;-57
2023/08/11 00:13:57;0.00;0.00;0.62;0.00;0.00;0.62;2.30;1.73;;;28.90;27.50;;;;;;2264669;61;20386;-58
2023/08/11 00:16:42;0.00;0.00;0.62;0.00;0.00;0.62;3.00;2.20;;;28.90;26.90;;;;;;2264038;61;20418;-58
2023/08/11 00:19:27;0.00;0.00;0.62;0.00;0.00;0.62;2.83;1.53;;;28.90;27.00;;;;;;2263664;61;20567;-56
2023/08/11 00:22:13;0.00;0.00;0.62;0.00;0.00;0.62;4.13;1.70;;;28.80;26.90;;;;;;2264477;61;20356;-57
2023/08/11 00:24:57;0.00;0.00;0.62;0.00;0.00;0.62;2.73;2.10;;;28.90;27.00;;;;;;2263818;61;20375;-60
2023/08/11 00:27:42;0.00;0.00;0.62;0.00;0.00;0.62;2.03;1.67;;;28.90;27.00;;;;;;2264371;61;20418;-56
2023/08/11 00:30:28;0.00;0.00;0.62;0.00;0.00;0.62;4.07;1.93;;;28.90;27.00;;;;;;2264204;61;20419;-58
2023/08/11 00:33:12;0.00;0.00;0.62;0.00;0.00;0.62;3.67;2.00;;;28.80;26.90;;;;;;2263920;61;20414;-59
2023/08/11 00:35:57;0.00;0.00;0.62;0.00;0.00;0.62;1.90;1.67;;;28.90;27.00;;;;;;2261221;61;20447;-60
2023/08/11 00:38:43;0.00;0.00;0.62;0.00;0.00;0.62;2.10;1.70;;;28.80;26.90;;;;;;2263737;61;20361;-56
2023/08/11 00:41:27;0.00;0.00;0.62;0.00;0.00;0.62;1.93;1.70;;;28.80;27.00;;;;;;2260917;61;20411;-60
2023/08/11 00:44:13;0.00;0.00;0.62;0.00;0.00;0.62;2.80;1.67;;;28.80;26.90;;;;;;2264476;61;20468;-57
2023/08/11 00:46:58;0.00;0.00;0.62;0.00;0.00;0.62;2.63;1.80;;;28.80;27.00;;;;;;2260387;61;20394;-53
2023/08/11 00:49:43;0.00;0.00;0.62;0.00;0.00;0.62;2.40;1.60;;;28.80;27.50;;;;;;2260779;61;20792;-58
2023/08/11 00:52:28;0.00;0.00;0.62;0.00;0.00;0.62;2.00;1.47;;;28.80;27.00;;;;;;2264244;61;20707;-64
2023/08/11 00:55:15;0.00;0.00;0.62;0.00;0.00;0.62;3.47;1.83;;;28.80;27.00;;;;;;2260502;61;20926;-57
2023/08/11 00:58:00;0.00;0.00;0.62;0.00;0.00;0.62;3.70;1.87;;;28.80;27.60;;;;;;2261140;61;20391;-55
2023/08/11 01:00:46;0.00;0.00;0.62;0.00;0.00;0.62;2.40;1.70;;;28.80;27.00;;;;;;2263936;61;20392;-58
2023/08/11 01:03:31;0.00;0.00;0.62;0.00;0.00;0.62;2.63;1.90;;;28.80;27.00;;;;;;2260778;61;20448;-60
2023/08/11 01:06:28;0.00;0.00;0.62;0.00;0.00;0.62;2.90;1.87;;;28.80;27.00;;;;;;2263820;61;20951;-61
2023/08/11 01:09:28;0.00;0.00;0.62;0.00;0.00;0.62;2.23;1.57;;;28.80;27.00;;;;;;2259416;61;20927;-62
2023/08/11 01:12:25;0.00;0.00;0.62;0.00;0.00;0.62;3.00;1.80;;;28.80;27.00;;;;;;2263851;61;20977;-60
2023/08/11 01:15:17;0.00;0.00;0.62;0.00;0.00;0.62;2.83;1.60;;;28.80;27.00;;;;;;2263716;61;20990;-57
2023/08/11 01:18:04;0.00;0.00;0.62;0.00;0.00;0.62;2.27;1.57;;;28.80;27.10;;;;;;2263452;61;20533;-62
2023/08/11 01:20:52;0.00;0.00;0.62;0.00;0.00;0.62;3.23;1.90;;;28.80;27.10;;;;;;2260775;61;20387;-62
2023/08/11 01:23:40;0.00;0.00;0.62;0.00;0.00;0.62;2.23;1.60;;;28.80;27.60;;;;;;2260558;61;20376;-61
2023/08/11 01:26:25;0.00;0.00;0.62;0.00;0.00;0.62;3.00;1.47;;;28.80;27.10;;;;;;2264046;61;20368;-61
2023/08/11 01:29:10;0.00;0.00;0.62;0.00;0.00;0.62;2.47;1.63;;;28.80;27.10;;;;;;2263453;61;20383;-62
2023/08/11 01:31:55;0.00;0.00;0.62;0.00;0.00;0.62;3.90;1.97;;;28.80;27.10;;;;;;2260248;61;20433;-61
2023/08/11 01:34:40;0.00;0.00;0.62;0.00;0.00;0.62;3.83;1.77;;;28.80;27.10;;;;;;2260873;61;20360;-62
2023/08/11 01:37:26;0.00;0.00;0.62;0.00;0.00;0.62;2.90;1.83;;;28.70;27.00;;;;;;2263845;61;20444;-59
2023/08/11 01:40:14;0.00;0.00;0.62;0.00;0.00;0.62;3.27;1.83;;;28.80;27.20;;;;;;2259892;61;20376;-61
2023/08/11 01:43:02;0.00;0.00;0.62;0.00;0.00;0.62;2.73;1.57;;;28.70;27.10;;;;;;2263736;61;20387;-61
2023/08/11 01:45:48;0.00;0.00;0.62;0.00;0.00;0.62;2.40;1.60;;;28.70;27.10;;;;;;2263948;61;20407;-62
2023/08/11 01:48:33;0.00;0.00;0.62;0.00;0.00;0.62;2.47;1.93;;;28.70;27.10;;;;;;2264267;61;20378;-61
2023/08/11 01:51:18;0.00;0.00;0.62;0.00;0.00;0.62;2.93;1.80;;;28.80;27.20;;;;;;2264449;61;21036;-62
2023/08/11 01:54:04;0.00;0.00;0.62;0.00;0.00;0.62;3.37;1.67;;;28.80;27.20;;;;;;2264286;61;20371;-59
2023/08/11 01:56:51;0.00;0.00;0.62;0.00;0.00;0.62;4.87;1.90;;;28.80;27.20;;;;;;2264566;61;20395;-63
2023/08/11 01:59:36;0.00;0.00;0.62;0.00;0.00;0.62;2.60;1.93;;;28.70;27.20;;;;;;2258237;61;20433;-64
2023/08/11 02:02:21;0.00;0.00;0.62;0.00;0.00;0.62;2.60;2.00;;;28.80;27.20;;;;;;2261099;61;20809;-62
2023/08/11 02:05:15;0.00;0.00;0.62;0.00;0.00;0.62;2.80;1.77;;;28.70;27.20;;;;;;2264558;61;20716;-61
2023/08/11 02:08:02;0.00;0.00;0.62;0.00;0.00;0.62;2.33;1.67;;;28.80;27.20;;;;;;2264533;61;20904;-61
2023/08/11 02:10:47;0.00;0.00;0.62;0.00;0.00;0.62;3.47;1.77;;;28.70;27.20;;;;;;2261267;61;20927;-61
2023/08/11 02:13:33;0.00;0.00;0.62;0.00;0.00;0.62;1.77;1.40;;;28.70;27.20;;;;;;2261614;61;20406;-61
2023/08/11 02:16:19;0.00;0.00;0.62;0.00;0.00;0.62;2.50;1.70;;;28.70;27.20;;;;;;2264127;61;20396;-64
2023/08/11 02:19:05;0.00;0.00;0.62;0.00;0.00;0.62;2.53;1.90;;;28.70;27.20;;;;;;2264132;61;20427;-62
2023/08/11 02:21:50;0.00;0.00;0.62;0.00;0.00;0.62;3.00;1.80;;;28.70;27.20;;;;;;2264696;61;20372;-61
2023/08/11 02:24:36;0.00;0.00;0.62;0.00;0.00;0.62;3.90;2.10;;;28.70;27.20;;;;;;2263934;61;20383;-61
2023/08/11 02:27:22;0.00;0.00;0.62;0.00;0.00;0.62;2.70;1.80;;;28.70;27.30;;;;;;2264510;61;20399;-62
2023/08/11 02:30:11;0.00;0.00;0.62;0.00;0.00;0.62;2.13;1.60;;;28.70;27.30;;;;;;2263814;61;20380;-62
2023/08/11 02:32:56;0.00;0.00;0.62;0.00;0.00;0.62;2.27;1.80;;;28.70;27.30;;;;;;2264367;61;20848;-60
2023/08/11 02:35:40;0.00;0.00;0.62;0.00;0.00;0.62;2.30;1.73;;;28.70;27.30;;;;;;2261634;61;20440;-61
2023/08/11 02:38:25;0.00;0.00;0.62;0.00;0.00;0.62;2.37;1.80;;;28.70;27.30;;;;;;2263528;61;20372;-61
2023/08/11 02:41:11;0.00;0.00;0.62;0.00;0.00;0.62;2.87;1.90;;;28.70;27.30;;;;;;2264587;61;21031;-61
2023/08/11 02:43:55;0.00;0.00;0.62;0.00;0.00;0.62;3.50;2.13;;;28.70;27.30;;;;;;2264683;61;20443;-61
2023/08/11 02:46:42;0.00;0.00;0.62;0.00;0.00;0.62;2.83;1.80;;;28.70;27.30;;;;;;2263727;61;20980;-62
2023/08/11 02:49:27;0.00;0.00;0.62;0.00;0.00;0.62;2.70;2.13;;;28.70;27.30;;;;;;2261001;61;20959;-61
2023/08/11 02:52:12;0.00;0.00;0.62;0.00;0.00;0.62;3.03;2.03;;;28.70;27.30;;;;;;2264331;61;20531;-61
2023/08/11 02:54:57;0.00;0.00;0.62;0.00;0.00;0.62;2.40;1.80;;;28.70;27.30;;;;;;2264189;61;20360;-61
2023/08/11 02:57:42;0.00;0.00;0.62;0.00;0.00;0.62;2.63;1.60;;;28.70;27.30;;;;;;2260944;61;20790;-62
2023/08/11 03:00:28;0.00;0.00;0.62;0.00;0.00;0.62;2.30;1.60;;;28.70;27.30;;;;;;2263267;61;20498;-62
2023/08/11 03:03:14;0.00;0.00;0.62;0.00;0.00;0.62;2.67;2.07;;;28.70;27.40;;;;;;2261325;61;20459;-60
2023/08/11 03:06:01;0.00;0.00;0.62;0.00;0.00;0.62;3.57;2.20;;;28.70;27.40;;;;;;2261115;61;20387;-62
2023/08/11 03:08:45;0.00;0.00;0.62;0.00;0.00;0.62;2.97;1.80;;;28.70;27.40;;;;;;2263461;61;20832;-59
2023/08/11 03:11:30;0.00;0.00;0.62;0.00;0.00;0.62;2.57;1.73;;;28.70;27.40;;;;;;2264491;61;20380;-60
2023/08/11 03:14:15;0.00;0.00;0.62;0.00;0.00;0.62;3.47;2.10;;;28.70;27.40;;;;;;2264066;61;20390;-61
2023/08/11 03:17:05;0.00;0.00;0.62;0.00;0.00;0.62;2.53;1.80;;;28.70;27.40;;;;;;2264048;61;20776;-61
2023/08/11 03:19:51;0.00;0.00;0.62;0.00;0.00;0.62;2.27;1.77;;;28.70;27.40;;;;;;2260896;61;20388;-60
2023/08/11 03:22:37;0.00;0.00;0.62;0.00;0.00;0.62;2.97;1.97;;;28.70;27.40;;;;;;2260316;61;20368;-60
2023/08/11 03:25:23;0.00;0.00;0.62;0.00;0.00;0.62;2.50;1.70;;;28.70;27.40;;;;;;2261162;61;20954;-62
2023/08/11 03:28:08;0.00;0.00;0.62;0.00;0.00;0.62;2.97;1.90;;;28.70;27.40;;;;;;2261267;61;20519;-61
2023/08/11 03:30:57;0.00;0.00;0.62;0.00;0.00;0.62;2.43;1.40;;;28.60;27.30;;;;;;2260203;61;20380;-62
2023/08/11 03:33:42;0.00;0.00;0.62;0.00;0.00;0.62;2.13;1.70;;;28.70;27.40;;;;;;2264337;61;20368;-62
2023/08/11 03:36:31;0.00;0.00;0.62;0.00;0.00;0.62;3.30;1.80;;;28.70;27.40;;;;;;2260975;61;20418;-62
2023/08/11 03:39:17;0.00;0.00;0.62;0.00;0.00;0.62;3.20;1.77;;;28.70;27.40;;;;;;2260221;61;20445;-62
2023/08/11 03:42:01;0.00;0.00;0.62;0.00;0.00;0.62;3.00;1.90;;;28.70;27.40;;;;;;2264350;61;20403;-61
2023/08/11 03:44:46;0.00;0.00;0.62;0.00;0.00;0.62;2.40;1.77;;;28.70;27.40;;;;;;2263829;61;20457;-62
2023/08/11 03:47:31;0.00;0.00;0.62;0.00;0.00;0.62;3.70;1.97;;;28.70;27.40;;;;;;2260974;61;20808;-61
2023/08/11 03:50:16;0.00;0.00;0.62;0.00;0.00;0.62;3.40;2.27;;;28.70;27.40;;;;;;2260678;61;20391;-61
2023/08/11 03:53:03;0.00;0.00;0.62;0.00;0.00;0.62;2.80;1.97;;;28.70;27.40;;;;;;2263699;61;20535;-59
2023/08/11 03:55:49;0.00;0.00;0.62;0.00;0.00;0.62;3.13;1.97;;;28.70;27.50;;;;;;2260994;61;20908;-62
2023/08/11 03:58:36;0.00;0.00;0.62;0.00;0.00;0.62;4.87;2.00;;;28.70;27.50;;;;;;2260329;61;20364;-60
2023/08/11 04:01:21;0.00;0.00;0.62;0.00;0.00;0.62;2.00;1.50;;;28.70;27.40;;;;;;2260793;61;20360;-63
2023/08/11 04:04:06;0.00;0.00;0.62;0.00;0.00;0.62;2.13;1.50;;;28.70;27.50;;;;;;2264192;61;20482;-59
2023/08/11 04:06:52;0.00;0.00;0.62;0.00;0.00;0.62;2.20;1.40;;;28.60;27.40;;;;;;2263504;61;20451;-61
2023/08/11 04:09:44;0.00;0.00;0.62;0.00;0.00;0.62;1.90;1.60;;;28.70;27.50;;;;;;2260357;61;20384;-61
2023/08/11 04:12:28;0.00;0.00;0.62;0.00;0.00;0.62;3.07;1.43;;;28.70;27.50;;;;;;2264084;61;20691;-60
2023/08/11 04:15:15;0.00;0.00;0.62;0.00;0.00;0.62;2.87;2.13;;;28.60;27.40;;;;;;2260640;61;20542;-64
2023/08/11 04:18:00;0.00;0.00;0.62;0.00;0.00;0.62;3.93;2.50;;;28.60;27.40;;;;;;2261111;61;20368;-61
2023/08/11 04:20:46;0.00;0.00;0.62;0.00;0.00;0.62;4.30;2.10;;;28.70;27.50;;;;;;2264116;61;20388;-62
2023/08/11 04:23:31;0.00;0.00;0.62;0.00;0.00;0.62;2.90;1.90;;;28.60;27.40;;;;;;2264006;61;20454;-56
2023/08/11 04:26:17;0.00;0.00;0.62;0.00;0.00;0.62;3.17;1.80;;;28.60;27.40;;;;;;2263910;61;20399;-58
2023/08/11 04:29:03;0.00;0.00;0.62;0.00;0.00;0.62;2.50;1.60;;;28.60;27.40;;;;;;2259810;61;20388;-59
2023/08/11 04:31:49;0.00;0.00;0.62;0.00;0.00;0.62;3.07;1.93;;;28.60;27.40;;;;;;2260683;61;20410;-55
2023/08/11 04:34:35;0.00;0.00;0.62;0.00;0.00;0.62;2.37;1.80;;;28.60;27.50;;;;;;2260976;61;20360;-55
2023/08/11 04:37:21;0.00;0.00;0.62;0.00;0.00;0.62;3.90;1.90;;;28.60;27.50;;;;;;2260035;61;20434;-55
2023/08/11 04:40:10;0.00;0.00;0.62;0.00;0.00;0.62;2.80;1.67;;;28.60;27.40;;;;;;2260300;61;20792;-59
2023/08/11 04:42:58;0.00;0.00;0.62;0.00;0.00;0.62;3.90;2.13;;;28.60;27.50;;;;;;2263695;61;20391;-58
2023/08/11 04:45:49;0.00;0.00;0.62;0.00;0.00;0.62;3.23;1.90;;;28.60;27.50;;;;;;2260270;61;20418;-57
2023/08/11 04:48:35;0.00;0.00;0.62;0.00;0.00;0.62;3.30;2.00;;;28.60;27.40;;;;;;2260376;61;20406;-66
2023/08/11 04:51:21;0.00;0.00;0.62;0.00;0.00;0.62;2.27;1.80;;;28.60;27.40;;;;;;2263683;61;20556;-57
2023/08/11 04:54:07;0.00;0.00;0.62;0.00;0.00;0.62;3.47;2.00;;;28.60;27.40;;;;;;2260860;61;20360;-58
2023/08/11 04:56:52;0.00;0.00;0.62;0.00;0.00;0.62;4.53;2.07;;;28.60;27.50;;;;;;2260865;61;20364;-57
2023/08/11 04:59:38;0.00;0.00;0.62;0.00;0.00;0.62;3.20;1.90;;;28.60;27.50;;;;;;2259845;61;20407;-58
2023/08/11 05:02:23;0.00;0.00;0.62;0.00;0.00;0.62;2.33;1.80;;;28.60;27.50;;;;;;2263944;61;20360;-61
2023/08/11 05:05:08;0.00;0.00;0.62;0.00;0.00;0.62;3.00;2.23;;;28.60;27.50;;;;;;2263786;61;20395;-59
2023/08/11 05:07:53;0.00;0.00;0.62;0.00;0.00;0.62;2.60;1.90;;;28.60;27.50;;;;;;2263734;61;20368;-58
2023/08/11 05:10:38;0.00;0.00;0.62;0.00;0.00;0.62;4.43;2.50;;;28.60;27.50;;;;;;2260610;61;20480;-56
2023/08/11 05:13:23;0.00;0.00;0.62;0.00;0.00;0.62;3.67;2.53;;;28.60;27.50;;;;;;2263592;61;20805;-54
2023/08/11 05:16:09;0.00;0.00;0.62;0.00;0.00;0.62;3.70;2.43;;;28.60;27.50;;;;;;2264137;61;20375;-57
2023/08/11 05:18:54;0.00;0.00;0.62;0.00;0.00;0.62;3.80;2.80;;;28.60;27.50;;;;;;2263681;61;20429;-60
2023/08/11 05:21:39;0.00;0.00;0.62;0.00;0.00;0.62;3.93;2.57;;;28.60;27.50;;;;;;2260282;61;20356;-57
2023/08/11 05:24:24;0.00;0.00;0.62;0.00;0.00;0.62;3.27;2.37;;;28.60;27.50;;;;;;2264178;61;20364;-57
2023/08/11 05:27:08;0.00;0.00;0.62;0.00;0.00;0.62;3.60;2.77;;;28.60;27.50;;;;;;2263855;61;20410;-58
2023/08/11 05:29:53;0.00;0.00;0.62;0.00;0.00;0.62;2.87;2.40;;;28.60;27.50;;;;;;2263039;61;20956;-59
2023/08/11 05:32:39;0.00;0.00;0.62;0.00;0.00;0.62;3.13;2.37;;;28.60;27.50;;;;;;2263967;61;20463;-56
2023/08/11 05:35:26;0.00;0.00;0.62;0.00;0.00;0.62;2.37;1.90;;;28.60;27.50;;;;;;2263596;61;20368;-56
2023/08/11 05:38:12;0.00;0.00;0.62;0.00;0.00;0.62;2.93;2.27;;;28.60;27.50;;;;;;2263828;61;20489;-60
2023/08/11 05:40:57;0.00;0.00;0.62;0.00;0.00;0.62;4.37;2.80;;;28.60;27.50;;;;;;2264066;61;20372;-58
2023/08/11 05:43:42;0.00;0.00;0.62;0.00;0.00;0.62;3.17;2.37;;;28.60;27.50;;;;;;2263111;61;20440;-57
2023/08/11 05:46:29;0.00;0.00;0.62;0.00;0.00;0.62;3.17;2.50;;;28.60;27.50;;;;;;2263956;61;20364;-55
2023/08/11 05:49:15;0.00;0.00;0.62;0.00;0.00;0.62;5.13;2.83;;;28.60;27.50;;;;;;2263560;61;20384;-57
2023/08/11 05:52:00;0.00;0.00;0.62;0.00;0.00;0.62;3.10;2.07;;;28.60;27.50;;;;;;2263564;61;20729;-55
2023/08/11 05:54:45;0.00;0.00;0.62;0.00;0.00;0.62;3.93;2.77;;;28.60;28.10;;;;;;2263706;61;20442;-58
2023/08/11 05:57:30;0.00;0.00;0.62;0.00;0.00;0.62;2.63;2.03;;;28.60;27.50;;;;;;2263623;61;20432;-59
2023/08/11 06:00:18;0.00;0.00;0.62;0.00;0.00;0.62;5.57;2.73;;;28.60;27.50;;;;;;2263476;61;20379;-56
2023/08/11 06:03:03;0.00;0.00;0.62;0.00;0.00;0.62;2.57;2.27;;;28.60;27.50;;;;;;2263977;61;20372;-57
2023/08/11 06:05:49;0.00;0.00;0.62;0.00;0.00;0.62;3.07;2.20;;;28.60;27.50;;;;;;2263124;61;20364;-56
2023/08/11 06:08:34;0.00;0.00;0.62;0.00;0.00;0.62;2.40;2.10;;;28.60;27.50;;;;;;2263539;61;20783;-60
2023/08/11 06:11:19;0.00;0.00;0.62;0.00;0.00;0.62;2.27;1.90;;;28.60;27.50;;;;;;2263540;61;20387;-61
2023/08/11 06:14:04;0.00;0.00;0.62;0.00;0.00;0.62;3.50;2.00;;;28.60;27.50;;;;;;2263733;61;20367;-58
2023/08/11 06:16:48;0.00;0.00;0.62;0.00;0.00;0.62;2.53;1.87;;;28.60;27.60;;;;;;2263968;61;20360;-59
2023/08/11 06:19:34;0.00;0.00;0.62;0.00;0.00;0.62;3.50;2.03;;;28.60;27.50;;;;;;2263211;61;20380;-60
2023/08/11 06:22:20;0.00;0.00;0.62;0.00;0.00;0.62;2.80;1.97;;;28.60;27.60;;;;;;2263945;61;20352;-58
2023/08/11 06:25:06;0.00;0.00;0.62;0.00;0.00;0.62;3.80;2.20;;;28.60;27.50;;;;;;2263724;61;20372;-58
2023/08/11 06:27:51;0.00;0.00;0.62;0.00;0.00;0.62;2.57;1.83;;;28.60;27.50;;;;;;2263142;61;20422;-58
2023/08/11 06:30:35;0.00;0.00;0.62;0.00;0.00;0.62;2.33;1.77;;;28.60;27.50;;;;;;2263561;61;20463;-58
2023/08/11 06:33:20;0.00;0.00;0.62;0.00;0.00;0.62;3.03;2.10;;;28.60;27.50;;;;;;2260685;61;20966;-58
2023/08/11 06:36:05;0.00;0.00;0.62;0.00;0.00;0.62;3.00;2.13;;;28.60;27.50;;;;;;2264071;61;20360;-58
2023/08/11 06:38:51;0.00;0.00;0.62;0.00;0.00;0.62;2.60;1.80;;;28.60;27.50;;;;;;2264089;61;20402;-59
2023/08/11 06:41:36;0.00;0.00;0.62;0.00;0.00;0.62;2.30;1.90;;;28.60;27.50;;;;;;2264176;61;20415;-58
2023/08/11 06:44:21;0.00;0.00;0.62;0.00;0.00;0.62;2.80;1.73;;;28.60;27.50;;;;;;2264260;61;20360;-56
2023/08/11 06:47:06;0.00;0.00;0.62;0.00;0.00;0.62;2.57;2.00;;;28.60;27.60;;;;;;2264383;61;20511;-55
2023/08/11 06:49:51;0.00;0.00;0.62;0.00;0.00;0.62;2.80;1.63;;;28.60;27.60;;;;;;2263228;61;20420;-60
2023/08/11 06:52:36;0.00;0.00;0.62;0.00;0.00;0.62;2.70;1.93;;;28.60;27.60;;;;;;2264388;61;20675;-57
2023/08/11 06:55:22;0.00;0.00;0.62;0.00;0.00;0.62;2.60;1.63;;;28.60;27.60;;;;;;2264128;61;20421;-56
2023/08/11 06:58:06;0.00;0.00;0.62;0.00;0.00;0.62;2.77;1.87;;;28.60;27.60;;;;;;2264065;61;20372;-59
2023/08/11 07:00:51;0.00;0.00;0.62;0.00;0.00;0.62;2.23;1.70;;;28.60;27.60;;;;;;2264251;61;20383;-57
2023/08/11 07:03:36;0.00;0.00;0.62;0.00;0.00;0.62;3.90;1.97;;;28.60;27.60;;;;;;2264263;61;20479;-55
2023/08/11 07:06:20;0.00;0.00;0.62;0.00;0.00;0.62;2.87;1.70;;;28.60;27.60;;;;;;2264088;61;20464;-57
2023/08/11 07:09:05;0.00;0.00;0.62;0.00;0.00;0.62;2.00;1.60;;;28.60;27.60;;;;;;2260722;61;20399;-57
2023/08/11 07:11:51;0.00;0.00;0.62;0.00;0.00;0.62;2.27;1.87;;;28.60;27.60;;;;;;2263903;61;20425;-58
2023/08/11 07:14:36;0.00;0.00;0.62;0.00;0.00;0.62;2.47;1.83;;;28.60;27.60;;;;;;2264402;61;20368;-59
2023/08/11 07:17:23;0.00;0.00;0.62;0.00;0.00;0.62;3.60;1.40;;;28.60;27.60;;;;;;2264321;61;20368;-54
2023/08/11 07:20:08;0.00;0.00;0.62;0.00;0.00;0.62;2.50;1.70;;;28.60;27.60;;;;;;2263358;61;20511;-57
2023/08/11 07:22:53;0.00;0.00;0.62;0.00;0.00;0.62;2.30;1.73;;;28.70;27.70;;;;;;2264414;61;20499;-60
2023/08/11 07:25:38;0.00;0.00;0.62;0.00;0.00;0.62;2.07;1.57;;;28.70;27.70;;;;;;2263995;61;20425;-55
2023/08/11 07:28:24;0.00;0.00;0.62;0.00;0.00;0.62;1.60;1.20;;;28.60;28.20;;;;;;2263811;61;20499;-58
2023/08/11 07:31:09;0.00;0.00;0.62;0.00;0.00;0.62;1.90;1.50;;;28.60;27.70;;;;;;2264253;61;20391;-60
2023/08/11 07:33:54;0.00;0.00;0.62;0.00;0.00;0.62;2.40;1.70;;;28.60;27.70;;;;;;2260618;61;20424;-60
2023/08/11 07:36:40;0.00;0.00;0.62;0.00;0.00;0.62;2.00;1.43;;;28.70;27.70;;;;;;2264215;61;20394;-57
2023/08/11 07:39:25;0.00;0.00;0.62;0.00;0.00;0.62;1.77;1.40;;;28.70;27.70;;;;;;2263865;61;20384;-57
2023/08/11 07:42:10;0.00;0.00;0.62;0.00;0.00;0.62;2.27;1.57;;;28.70;27.70;;;;;;2263788;61;20455;-57
2023/08/11 07:44:55;0.00;0.00;0.62;0.00;0.00;0.62;2.27;1.77;;;28.60;27.70;;;;;;2263910;61;20364;-61
2023/08/11 07:47:40;0.00;0.00;0.62;0.00;0.00;0.62;2.00;1.63;;;28.70;27.70;;;;;;2264323;61;20433;-61
2023/08/11 07:50:25;0.00;0.00;0.62;0.00;0.00;0.62;2.47;1.40;;;28.70;27.80;;;;;;2263556;61;20944;-54
2023/08/11 07:53:10;0.00;0.00;0.62;0.00;0.00;0.62;2.50;1.80;;;28.70;27.70;;;;;;2264205;61;20384;-58
2023/08/11 07:55:55;0.00;0.00;0.62;0.00;0.00;0.62;1.80;1.37;;;28.70;27.80;;;;;;2264120;61;20412;-59
2023/08/11 07:58:41;0.00;0.00;0.62;0.00;0.00;0.62;2.20;1.40;;;28.70;27.70;;;;;;2263800;61;20438;-54
2023/08/11 08:01:27;0.00;0.00;0.62;0.00;0.00;0.62;1.70;1.40;;;28.70;27.80;;;;;;2264173;61;20384;-58
2023/08/11 08:04:13;0.00;0.00;0.62;0.00;0.00;0.62;1.57;1.10;;;28.70;27.80;;;;;;2263469;61;20445;-60
2023/08/11 08:06:57;0.00;0.00;0.62;0.00;0.00;0.62;2.00;1.33;;;28.70;27.80;;;;;;2263969;61;20418;-55
2023/08/11 08:09:42;0.00;0.00;0.62;0.00;0.00;0.62;1.80;1.30;;;28.70;27.80;;;;;;2263538;61;20436;-62
2023/08/11 08:12:27;0.00;0.00;0.62;0.00;0.00;0.62;2.20;1.60;;;28.60;27.80;;;;;;2263515;61;20380;-57
2023/08/11 08:15:14;0.00;0.00;0.62;0.00;0.00;0.62;1.83;1.20;;;28.70;27.80;;;;;;2264302;61;20836;-59
2023/08/11 08:18:00;0.00;0.00;0.62;0.00;0.00;0.62;1.90;1.40;;;28.70;27.80;;;;;;2263929;61;20836;-58
2023/08/11 08:20:45;0.00;0.00;0.62;0.00;0.00;0.62;2.40;1.37;;;28.70;27.80;;;;;;2264321;61;20396;-56
2023/08/11 08:23:29;0.00;0.00;0.62;0.00;0.00;0.62;2.10;1.60;;;28.70;27.80;;;;;;2264201;61;20407;-55
2023/08/11 08:26:15;0.00;0.00;0.62;0.00;0.00;0.62;1.70;1.20;;;28.70;27.90;;;;;;2263565;61;20364;-53
2023/08/11 08:29:00;0.00;0.00;0.62;0.00;0.00;0.62;1.90;1.13;;;28.70;27.80;;;;;;2263757;61;20376;-56
2023/08/11 08:31:45;0.00;0.00;0.62;0.00;0.00;0.62;1.90;1.43;;;28.70;27.90;;;;;;2264101;61;20376;-59
2023/08/11 08:34:32;0.00;0.00;0.62;0.00;0.00;0.62;1.80;1.40;;;28.70;27.90;;;;;;2263858;61;20372;-58
2023/08/11 08:37:19;0.00;0.00;0.62;0.00;0.00;0.62;2.43;1.30;;;28.70;27.90;;;;;;2264089;61;20372;-57
2023/08/11 08:40:07;0.00;0.00;0.62;0.00;0.00;0.62;1.70;1.20;;;28.70;27.90;;;;;;2267412;61;20864;-58
2023/08/11 08:42:55;0.00;0.00;0.62;0.00;0.00;0.62;2.07;1.30;;;28.70;27.90;;;;;;2268215;61;20359;-58
2023/08/11 08:45:43;0.00;0.00;0.62;0.00;0.00;0.62;2.43;1.20;;;28.70;27.90;;;;;;2268131;61;20394;-58
2023/08/11 08:48:42;0.00;0.00;0.62;0.00;0.00;0.62;1.80;1.37;;;28.70;28.00;;;;;;2267209;61;20375;-55
2023/08/11 08:51:30;0.00;0.00;0.62;0.00;0.00;0.62;1.60;1.07;;;28.70;28.00;;;;;;2268205;61;20359;-53
2023/08/11 08:54:15;0.00;0.00;0.62;0.00;0.00;0.62;1.77;1.10;;;28.70;28.00;;;;;;2268105;61;20370;-58
2023/08/11 08:57:01;0.00;0.00;0.62;0.00;0.00;0.62;1.83;1.00;;;28.70;28.00;;;;;;2267492;61;20775;-58
2023/08/11 08:59:46;0.00;0.00;0.62;0.00;0.00;0.62;2.13;1.20;;;28.80;28.10;;;;;;2264372;61;20534;-57
2023/08/11 09:02:31;0.00;0.00;0.62;0.00;0.00;0.62;1.47;1.00;;;28.80;28.10;;;;;;2267972;61;20402;-61
2023/08/11 09:05:16;0.00;0.00;0.62;0.00;0.00;0.62;1.80;1.20;;;28.80;28.10;;;;;;2267966;61;20410;-59
2023/08/11 09:08:04;0.00;0.00;0.62;0.00;0.00;0.62;2.30;1.30;;;28.80;28.10;;;;;;2268118;61;20363;-55
2023/08/11 09:10:49;0.00;0.00;0.62;0.00;0.00;0.62;1.57;1.10;;;28.80;28.10;;;;;;2267569;61;20440;-57
2023/08/11 09:13:37;0.00;0.00;0.62;0.00;0.00;0.62;2.03;1.17;;;28.80;28.10;;;;;;2267959;61;20390;-56
2023/08/11 09:16:23;0.00;0.00;0.62;0.00;0.00;0.62;1.80;1.07;;;28.80;28.10;;;;;;2268165;61;20359;-56
2023/08/11 09:19:12;0.00;0.00;0.62;0.00;0.00;0.62;2.07;1.20;;;28.80;28.20;;;;;;2267344;61;20399;-60
2023/08/11 09:21:57;0.00;0.00;0.62;0.00;0.00;0.62;2.00;1.07;;;28.80;28.20;;;;;;2265000;61;20929;-58
2023/08/11 09:24:45;0.00;0.00;0.62;0.00;0.00;0.62;1.80;1.30;;;28.80;28.20;;;;;;2267909;61;20363;-57
2023/08/11 09:27:31;0.00;0.00;0.62;0.00;0.00;0.62;1.70;1.10;;;28.80;28.70;;;;;;2268074;61;20933;-57
2023/08/11 09:30:16;0.00;0.00;0.62;0.00;0.00;0.62;1.80;1.10;;;28.80;28.20;;;;;;2267604;61;20440;-58
2023/08/11 09:33:01;0.00;0.00;0.62;0.00;0.00;0.62;3.07;0.93;;;28.90;28.30;;;;;;2267522;61;20394;-59
2023/08/11 09:35:46;0.00;0.00;0.62;0.00;0.00;0.62;1.70;1.10;;;28.80;28.20;;;;;;2267822;61;20420;-55
2023/08/11 09:38:30;0.00;0.00;0.62;0.00;0.00;0.62;1.50;0.97;;;28.90;28.80;;;;;;2267617;61;20366;-59
2023/08/11 09:41:17;0.00;0.00;0.62;0.00;0.00;0.62;1.67;0.90;;;28.80;28.20;;;;;;2267629;61;20851;-61
2023/08/11 09:44:04;0.00;0.00;0.62;0.00;0.00;0.62;2.03;1.10;;;28.80;28.30;;;;;;2268222;61;20800;-54
2023/08/11 09:46:49;0.00;0.00;0.62;0.00;0.00;0.62;1.73;1.20;;;28.90;28.30;;;;;;2267769;61;20459;-59
2023/08/11 09:49:34;0.00;0.00;0.62;0.00;0.00;0.62;1.90;1.23;;;28.90;28.30;;;;;;2267690;61;20417;-57
2023/08/11 09:52:20;0.00;0.00;0.62;0.00;0.00;0.62;1.80;1.10;;;28.90;28.30;;;;;;2264742;61;20884;-53
2023/08/11 09:55:08;0.00;0.00;0.62;0.00;0.00;0.62;1.50;0.90;;;28.90;28.40;;;;;;2267424;61;20363;-59
2023/08/11 09:57:56;0.00;0.00;0.62;0.00;0.00;0.62;1.80;1.10;;;28.90;28.40;;;;;;2267852;61;20379;-57
2023/08/11 10:00:42;0.00;0.00;0.62;0.00;0.00;0.62;1.37;0.90;;;28.90;28.40;;;;;;2267695;61;20475;-56
2023/08/11 10:03:32;0.00;0.00;0.62;0.00;0.00;0.62;1.53;1.20;;;28.90;28.40;;;;;;2267553;61;20370;-55
2023/08/11 10:06:22;0.00;0.00;0.62;0.00;0.00;0.62;1.63;1.17;;;28.90;28.40;;;;;;2267954;61;21114;-60
2023/08/11 10:09:12;0.00;0.00;0.62;0.00;0.00;0.62;1.30;0.80;;;28.90;28.40;;;;;;2267603;61;20909;-61
2023/08/11 10:11:59;0.00;0.00;0.62;0.00;0.00;0.62;1.67;0.90;;;28.90;28.40;;;;;;2268438;61;20801;-58
2023/08/11 10:14:45;0.00;0.00;0.62;0.00;0.00;0.62;1.43;0.83;;;28.90;28.40;;;;;;2268626;61;20423;-63
2023/08/11 10:17:30;0.00;0.00;0.62;0.00;0.00;0.62;1.70;0.90;;;29.00;28.50;;;;;;2268070;61;20834;-55
2023/08/11 10:20:16;0.00;0.00;0.62;0.00;0.00;0.62;1.40;0.80;;;29.00;28.50;;;;;;2268218;61;20422;-56
2023/08/11 10:23:02;0.00;0.00;0.62;0.00;0.00;0.62;1.40;0.90;;;29.00;28.50;;;;;;2268717;61;20744;-57
2023/08/11 10:25:48;0.00;0.00;0.62;0.00;0.00;0.62;1.40;0.90;;;29.00;28.50;;;;;;2264826;61;20761;-59
2023/08/11 10:28:33;0.00;0.00;0.62;0.00;0.00;0.62;1.50;0.90;;;29.00;28.50;;;;;;2268422;61;20757;-57
2023/08/11 10:31:25;0.00;0.00;0.62;0.00;0.00;0.62;3.83;0.80;;;29.00;28.50;;;;;;2268266;61;20393;-59
2023/08/11 10:34:12;0.00;0.00;0.62;0.00;0.00;0.62;1.70;1.20;;;29.00;28.50;;;;;;2268682;61;20519;-59
2023/08/11 10:36:58;0.00;0.00;0.62;0.00;0.00;0.62;2.73;1.37;;;29.00;28.50;;;;;;2268447;61;20825;-58
2023/08/11 10:39:43;0.00;0.00;0.62;0.00;0.00;0.62;1.40;0.90;;;29.00;28.50;;;;;;2267535;61;20926;-57
2023/08/11 10:42:28;0.00;0.00;0.62;0.00;0.00;0.62;1.43;1.00;;;29.00;28.60;;;;;;2268602;61;21219;-57
2023/08/11 10:45:14;0.00;0.00;0.62;0.00;0.00;0.62;1.60;1.00;;;29.00;28.50;;;;;;2268448;61;20367;-56
2023/08/11 10:48:08;0.00;0.00;0.62;0.00;0.00;0.62;1.33;0.87;;;29.10;28.60;;;;;;2268031;61;20362;-57
2023/08/11 10:50:53;0.00;0.00;0.62;0.00;0.00;0.62;2.00;0.93;;;29.10;28.60;;;;;;2268441;61;20437;-59
2023/08/11 10:53:39;0.00;0.00;0.62;0.00;0.00;0.62;1.40;0.87;;;29.10;28.60;;;;;;2268026;61;20387;-58